createdAt,value
2018-02-08T00:01:01.405Z,54.45
2018-02-08T00:03:28.858Z,49.92
2018-02-08T00:05:56.293Z,58.83
2018-02-08T00:08:23.764Z,56.63
2018-02-08T00:10:51.969Z,62.78
2018-02-08T00:13:19.397Z,52.10
2018-02-08T00:15:47.578Z,55.67
2018-02-08T00:18:15.773Z,56.92
2018-02-08T00:20:43.978Z,51.05
2018-02-08T00:23:11.439Z,51.58
2018-02-08T00:25:38.994Z,50.85
2018-02-08T00:28:07.214Z,52.55
2018-02-08T00:30:34.692Z,52.03
2018-02-08T00:33:02.255Z,57.58
2018-02-08T00:35:30.477Z,55.85
2018-02-08T00:37:58.015Z,57.80
2018-02-08T00:40:26.217Z,61.97
2018-02-08T00:42:53.808Z,55.53
2018-02-08T00:45:21.414Z,53.92
2018-02-08T00:47:48.845Z,57.60
2018-02-08T00:50:16.270Z,56.47
2018-02-08T00:52:44.557Z,54.17
2018-02-08T00:55:12.808Z,57.08
2018-02-08T00:57:40.254Z,53.00
2018-02-08T01:00:07.742Z,52.78
2018-02-08T01:02:35.193Z,61.40
2018-02-08T01:05:02.725Z,54.20
2018-02-08T01:07:30.201Z,54.60
2018-02-08T01:09:58.475Z,58.08
2018-02-08T01:12:25.918Z,60.12
2018-02-08T01:14:53.430Z,60.55
2018-02-08T01:17:20.914Z,63.33
2018-02-08T01:19:48.373Z,55.53
2018-02-08T01:22:16.614Z,63.78
2018-02-08T01:24:44.106Z,60.67
2018-02-08T01:27:11.566Z,60.58
2018-02-08T01:29:39.052Z,54.42
2018-02-08T01:32:06.484Z,57.00
2018-02-08T01:34:33.996Z,67.95
2018-02-08T01:37:02.211Z,53.15
2018-02-08T01:39:29.690Z,60.40
2018-02-08T01:41:57.173Z,60.05
2018-02-08T01:44:24.609Z,56.63
2018-02-08T01:46:52.194Z,58.72
2018-02-08T01:52:20.498Z,55.15
2018-02-08T01:54:48.002Z,64.97
2018-02-08T01:57:15.553Z,61.95
2018-02-08T01:59:43.990Z,57.78
2018-02-08T02:02:11.425Z,55.55
2018-02-08T02:04:38.916Z,54.00
2018-02-08T02:07:06.405Z,57.00
2018-02-08T02:09:34.013Z,56.42
2018-02-08T02:12:01.545Z,58.38
2018-02-08T02:14:29.093Z,66.00
2018-02-08T02:16:56.627Z,70.45
2018-02-08T02:19:24.155Z,75.00
2018-02-08T02:21:51.713Z,62.25
2018-02-08T02:24:19.181Z,64.05
2018-02-08T02:26:46.646Z,62.88
2018-02-08T02:29:14.171Z,61.72
2018-02-08T02:31:42.365Z,57.65
2018-02-08T02:34:09.802Z,60.75
2018-02-08T02:36:38.046Z,60.28
2018-02-08T02:39:05.514Z,70.43
2018-02-08T02:41:33.040Z,58.30
2018-02-08T02:44:00.573Z,69.03
2018-02-08T02:46:28.748Z,62.17
2018-02-08T02:48:56.173Z,62.17
2018-02-08T02:51:24.570Z,67.75
2018-02-08T02:53:51.997Z,65.55
2018-02-08T02:56:19.446Z,65.15
2018-02-08T02:58:46.884Z,62.35
2018-02-08T03:01:14.307Z,64.95
2018-02-08T03:03:41.728Z,66.93
2018-02-08T03:06:09.179Z,60.80
2018-02-08T03:08:36.653Z,67.12
2018-02-08T03:11:04.126Z,64.80
2018-02-08T03:13:31.594Z,70.72
2018-02-08T03:15:59.053Z,78.93
2018-02-08T03:18:26.514Z,68.72
2018-02-08T03:20:54.709Z,65.68
2018-02-08T03:23:23.013Z,61.80
2018-02-08T03:25:51.314Z,70.75
2018-02-08T03:28:18.745Z,67.72
2018-02-08T03:33:46.477Z,60.10
2018-02-08T03:36:13.899Z,65.70
2018-02-08T03:38:41.455Z,60.83
2018-02-08T03:41:08.939Z,67.55
2018-02-08T03:43:36.493Z,69.30
2018-02-08T03:46:04.045Z,64.20
2018-02-08T03:48:31.477Z,65.15
2018-02-08T03:50:58.924Z,67.82
2018-02-08T03:53:26.445Z,71.75
2018-02-08T03:55:54.699Z,80.80
2018-02-08T03:58:22.304Z,67.20
2018-02-08T04:00:50.748Z,75.53
2018-02-08T04:03:18.326Z,76.97
2018-02-08T04:05:45.727Z,69.30
2018-02-08T04:08:14.010Z,75.80
2018-02-08T04:10:41.445Z,74.50
2018-02-08T04:13:08.976Z,73.82
2018-02-08T04:15:37.130Z,74.37
2018-02-08T04:18:05.324Z,69.75
2018-02-08T04:20:33.579Z,72.80
2018-02-08T04:23:01.001Z,72.07
2018-02-08T04:25:28.417Z,78.40
2018-02-08T04:27:55.843Z,70.05
2018-02-08T04:30:23.343Z,71.18
2018-02-08T04:32:50.808Z,67.50
2018-02-08T04:35:18.229Z,94.10
2018-02-08T04:37:46.404Z,70.12
2018-02-08T04:40:26.521Z,70.97
2018-02-08T04:43:05.966Z,71.82
2018-02-08T04:45:45.330Z,66.72
2018-02-08T04:48:12.792Z,69.95
2018-02-08T04:50:40.202Z,70.30
2018-02-08T04:53:07.726Z,61.08
2018-02-08T04:55:35.302Z,74.80
2018-02-08T04:58:02.824Z,73.37
2018-02-08T05:00:30.240Z,64.15
2018-02-08T05:03:00.575Z,73.05
2018-02-08T05:05:28.008Z,73.50
2018-02-08T05:07:55.497Z,70.97
2018-02-08T05:10:23.713Z,66.28
2018-02-08T05:12:51.226Z,72.25
2018-02-08T05:15:18.753Z,74.97
2018-02-08T05:17:46.170Z,68.25
2018-02-08T05:20:13.708Z,73.60
2018-02-08T05:22:41.099Z,78.87
2018-02-08T05:25:08.626Z,71.53
2018-02-08T05:27:36.097Z,69.68
2018-02-08T05:30:03.553Z,68.78
2018-02-08T05:32:31.771Z,65.95
2018-02-08T05:34:59.205Z,67.95
2018-02-08T05:37:26.771Z,67.03
2018-02-08T05:39:54.311Z,67.47
2018-02-08T05:42:21.734Z,69.32
2018-02-08T05:44:49.223Z,74.78
2018-02-08T05:47:16.678Z,67.18
2018-02-08T05:49:44.123Z,76.53
2018-02-08T05:52:12.326Z,73.32
2018-02-08T05:54:39.752Z,73.25
2018-02-08T05:57:07.206Z,74.18
2018-02-08T05:59:34.658Z,71.03
2018-02-08T06:02:02.160Z,65.37
2018-02-08T06:04:29.778Z,73.82
2018-02-08T06:06:57.212Z,75.65
2018-02-08T06:09:25.459Z,72.55
2018-02-08T06:11:53.015Z,75.65
2018-02-08T06:14:21.264Z,72.03
2018-02-08T06:16:48.737Z,71.55
2018-02-08T06:19:16.188Z,70.55
2018-02-08T06:21:43.605Z,84.30
2018-02-08T06:24:11.836Z,80.80
2018-02-08T06:26:39.292Z,79.85
2018-02-08T06:29:06.725Z,75.20
2018-02-08T06:31:34.142Z,67.20
2018-02-08T06:34:01.557Z,68.95
2018-02-08T06:36:28.969Z,72.07
2018-02-08T06:38:56.466Z,74.45
2018-02-08T06:41:29.014Z,75.95
2018-02-08T06:43:57.177Z,66.15
2018-02-08T06:46:25.362Z,64.50
2018-02-08T06:48:53.611Z,66.40
2018-02-08T06:51:21.086Z,73.20
2018-02-08T06:53:48.613Z,71.15
2018-02-08T06:56:16.026Z,71.15
2018-02-08T06:58:43.453Z,78.65
2018-02-08T07:01:10.877Z,67.62
2018-02-08T07:03:38.302Z,71.80
2018-02-08T07:06:05.733Z,65.72
2018-02-08T07:08:33.969Z,82.05
2018-02-08T07:11:01.557Z,73.37
2018-02-08T07:13:28.977Z,76.35
2018-02-08T07:15:56.408Z,66.35
2018-02-08T07:18:23.840Z,63.05
2018-02-08T07:20:51.300Z,82.45
2018-02-08T07:23:18.758Z,70.45
2018-02-08T07:25:46.183Z,81.40
2018-02-08T07:28:13.601Z,84.43
2018-02-08T07:30:41.146Z,72.32
2018-02-08T07:33:09.343Z,77.47
2018-02-08T07:35:36.815Z,72.15
2018-02-08T07:38:04.202Z,67.78
2018-02-08T07:40:31.752Z,69.60
2018-02-08T07:42:59.928Z,67.47
2018-02-08T07:45:27.342Z,79.87
2018-02-08T07:47:54.757Z,88.03
2018-02-08T07:50:22.193Z,75.07
2018-02-08T07:52:49.619Z,78.00
2018-02-08T07:55:17.078Z,73.97
2018-02-08T07:57:44.538Z,76.80
2018-02-08T08:00:12.019Z,81.45
2018-02-08T08:02:39.476Z,77.87
2018-02-08T08:05:06.963Z,95.65
2018-02-08T08:07:34.420Z,93.85
2018-02-08T08:10:01.850Z,74.55
2018-02-08T08:12:29.414Z,100.85
2018-02-08T08:14:56.828Z,84.55
2018-02-08T08:17:24.299Z,83.60
2018-02-08T08:19:52.602Z,91.07
2018-02-08T08:22:20.082Z,101.15
2018-02-08T08:24:47.488Z,111.45
2018-02-08T08:27:15.716Z,110.60
2018-02-08T08:29:43.176Z,90.60
2018-02-08T08:32:10.599Z,88.30
2018-02-08T08:34:38.022Z,84.30
2018-02-08T08:37:05.481Z,86.45
2018-02-08T08:39:32.954Z,81.78
2018-02-08T08:42:00.451Z,79.35
2018-02-08T08:44:27.869Z,90.45
2018-02-08T08:46:56.062Z,83.90
2018-02-08T08:49:23.496Z,96.50
2018-02-08T08:51:51.022Z,95.03
2018-02-08T08:54:18.457Z,101.50
2018-02-08T08:56:46.652Z,75.10
2018-02-08T08:59:14.167Z,88.10
2018-02-08T09:01:41.621Z,81.65
2018-02-08T09:04:09.076Z,92.03
2018-02-08T09:06:37.254Z,92.03
2018-02-08T09:09:04.708Z,86.57
2018-02-08T09:11:32.098Z,79.57
2018-02-08T09:13:59.567Z,97.37
2018-02-08T09:16:27.721Z,93.70
2018-02-08T09:18:55.917Z,88.12
2018-02-08T09:21:24.225Z,77.45
2018-02-08T09:23:52.440Z,82.70
2018-02-08T09:26:19.882Z,86.68
2018-02-08T09:28:47.302Z,94.80
2018-02-08T09:31:14.738Z,86.50
2018-02-08T09:33:42.291Z,91.22
2018-02-08T09:36:10.474Z,81.55
2018-02-08T09:38:38.673Z,85.65
2018-02-08T09:41:06.137Z,77.70
2018-02-08T09:43:33.601Z,91.70
2018-02-08T09:46:01.749Z,86.40
2018-02-08T09:48:29.977Z,86.28
2018-02-08T09:50:57.438Z,83.82
2018-02-08T09:53:24.878Z,81.65
2018-02-08T09:55:53.067Z,88.37
2018-02-08T09:58:21.274Z,89.68
2018-02-08T10:00:48.730Z,89.07
2018-02-08T10:03:16.906Z,86.65
2018-02-08T10:05:45.140Z,89.20
2018-02-08T10:08:12.595Z,83.68
2018-02-08T10:10:40.061Z,76.00
2018-02-08T10:13:07.479Z,76.43
2018-02-08T10:15:34.891Z,85.85
2018-02-08T10:18:02.317Z,76.78
2018-02-08T10:20:29.835Z,90.85
2018-02-08T10:22:57.260Z,81.12
2018-02-08T10:25:24.696Z,92.55
2018-02-08T10:27:52.141Z,75.65
2018-02-08T10:30:19.607Z,97.45
2018-02-08T10:32:47.027Z,83.55
2018-02-08T10:35:14.441Z,80.30
2018-02-08T10:37:41.935Z,93.68
2018-02-08T10:40:09.367Z,86.12
2018-02-08T10:42:37.586Z,93.28
2018-02-08T10:45:05.140Z,82.12
2018-02-08T10:47:33.345Z,101.97
2018-02-08T10:50:00.784Z,98.80
2018-02-08T10:52:28.298Z,96.57
2018-02-08T10:54:55.736Z,98.72
2018-02-08T10:57:23.149Z,92.68
2018-02-08T10:59:50.683Z,92.78
2018-02-08T11:02:18.096Z,101.38
2018-02-08T11:04:45.781Z,110.70
2018-02-08T11:07:13.968Z,112.05
2018-02-08T11:09:42.177Z,103.95
2018-02-08T11:12:10.371Z,99.13
2018-02-08T11:14:37.829Z,98.32
2018-02-08T11:17:05.259Z,100.70
2018-02-08T11:19:34.181Z,116.32
2018-02-08T11:22:02.402Z,109.25
2018-02-08T11:24:29.883Z,110.78
2018-02-08T11:26:57.298Z,104.65
2018-02-08T11:29:25.007Z,113.20
2018-02-08T11:31:53.221Z,102.65
2018-02-08T11:34:20.665Z,98.75
2018-02-08T11:36:48.116Z,115.47
2018-02-08T11:39:15.552Z,122.47
2018-02-08T11:41:43.083Z,107.80
2018-02-08T11:44:10.534Z,107.22
2018-02-08T11:46:38.018Z,107.85
2018-02-08T11:49:05.422Z,102.32
2018-02-08T11:51:32.861Z,104.53
2018-02-08T11:54:00.313Z,102.72
2018-02-08T11:56:27.757Z,104.25
2018-02-08T11:58:55.948Z,99.75
2018-02-08T12:01:23.944Z,92.50
2018-02-08T12:03:51.411Z,101.62
2018-02-08T12:06:18.884Z,100.20
2018-02-08T12:08:46.299Z,103.62
2018-02-08T12:11:13.732Z,94.87
2018-02-08T12:13:41.148Z,90.12
2018-02-08T12:16:08.573Z,95.80
2018-02-08T12:18:36.018Z,95.53
2018-02-08T12:21:03.433Z,98.97
2018-02-08T12:23:30.847Z,92.90
2018-02-08T12:25:58.369Z,102.60
2018-02-08T12:28:25.714Z,105.43
2018-02-08T12:30:53.158Z,91.82
2018-02-08T12:33:20.649Z,93.35
2018-02-08T12:35:48.049Z,88.93
2018-02-08T12:38:15.464Z,86.18
2018-02-08T12:40:42.949Z,98.10
2018-02-08T12:43:10.391Z,93.93
2018-02-08T12:45:38.578Z,83.80
2018-02-08T12:48:06.763Z,96.43
2018-02-08T12:50:34.351Z,87.05
2018-02-08T12:53:02.541Z,106.57
2018-02-08T12:55:30.007Z,95.12
2018-02-08T12:57:57.413Z,81.70
2018-02-08T13:00:24.849Z,94.37
2018-02-08T13:02:52.330Z,87.43
2018-02-08T13:05:19.769Z,80.05
2018-02-08T13:07:47.243Z,90.45
2018-02-08T13:10:14.668Z,86.87
2018-02-08T13:12:42.228Z,92.95
2018-02-08T13:15:09.618Z,92.12
2018-02-08T13:17:37.805Z,85.15
2018-02-08T13:20:06.039Z,90.45
2018-02-08T13:22:33.477Z,82.00
2018-02-08T13:25:01.667Z,95.82
2018-02-08T13:27:29.867Z,96.82
2018-02-08T13:29:57.354Z,102.90
2018-02-08T13:32:24.784Z,94.62
2018-02-08T13:34:52.980Z,95.75
2018-02-08T13:37:21.205Z,92.25
2018-02-08T13:39:52.328Z,95.28
2018-02-08T13:42:23.031Z,96.97
2018-02-08T13:44:50.515Z,101.55
2018-02-08T13:47:23.657Z,96.57
2018-02-08T13:49:53.592Z,96.43
2018-02-08T13:52:27.373Z,100.40
2018-02-08T13:55:01.242Z,91.90
2018-02-08T14:00:47.085Z,86.63
2018-02-08T14:03:14.524Z,84.43
2018-02-08T14:05:41.953Z,89.13
2018-02-08T14:08:09.383Z,99.80
2018-02-08T14:10:36.810Z,89.90
2018-02-08T14:13:05.067Z,84.50
2018-02-08T14:15:32.450Z,89.23
2018-02-08T14:17:59.990Z,89.80
2018-02-08T14:20:27.406Z,92.43
2018-02-08T14:22:54.872Z,90.67
2018-02-08T14:25:22.312Z,93.53
2018-02-08T14:27:50.004Z,87.50
2018-02-08T14:30:17.418Z,102.63
2018-02-08T14:32:44.848Z,100.40
2018-02-08T14:35:12.257Z,95.30
2018-02-08T14:37:39.677Z,101.90
2018-02-08T14:40:07.110Z,106.50
2018-02-08T14:42:34.529Z,106.23
2018-02-08T14:45:02.046Z,113.00
2018-02-08T14:47:29.513Z,103.57
2018-02-08T14:49:56.981Z,103.70
2018-02-08T14:52:24.468Z,104.30
2018-02-08T14:54:51.890Z,103.77
2018-02-08T14:57:20.074Z,109.57
2018-02-08T14:59:48.272Z,107.83
2018-02-08T15:02:15.690Z,112.78
2018-02-08T15:04:43.130Z,112.25
2018-02-08T15:07:10.687Z,111.22
2018-02-08T15:09:38.119Z,113.78
2018-02-08T15:12:05.581Z,120.25
2018-02-08T15:14:33.014Z,121.82
2018-02-08T15:17:00.472Z,126.80
2018-02-08T15:19:27.952Z,117.53
2018-02-08T15:21:55.410Z,122.43
2018-02-08T15:24:22.874Z,120.62
2018-02-08T15:26:50.399Z,116.75
2018-02-08T15:29:17.821Z,120.78
2018-02-08T15:31:45.263Z,128.43
2018-02-08T15:34:13.499Z,124.75
2018-02-08T15:36:40.949Z,116.07
2018-02-08T15:39:08.389Z,121.70
2018-02-08T15:41:35.807Z,123.70
2018-02-08T15:44:03.240Z,113.90
2018-02-08T15:46:30.711Z,119.28
2018-02-08T15:48:58.910Z,120.30
2018-02-08T15:51:26.316Z,118.62
2018-02-08T15:53:53.733Z,132.10
2018-02-08T15:56:21.164Z,127.15
2018-02-08T15:58:48.752Z,131.05
2018-02-08T16:03:47.177Z,119.85
2018-02-08T16:06:15.377Z,120.13
2018-02-08T16:08:42.807Z,116.28
2018-02-08T16:11:10.226Z,119.37
2018-02-08T16:13:37.720Z,117.05
2018-02-08T16:16:05.149Z,129.63
2018-02-08T16:18:32.585Z,112.40
2018-02-08T16:21:00.027Z,127.93
2018-02-08T16:23:27.421Z,121.37
2018-02-08T16:25:55.616Z,115.90
2018-02-08T16:28:24.035Z,116.28
2018-02-08T16:30:52.215Z,118.07
2018-02-08T16:33:19.646Z,110.28
2018-02-08T16:35:47.074Z,125.10
2018-02-08T16:38:14.522Z,127.18
2018-02-08T16:40:41.940Z,121.05
2018-02-08T16:43:09.467Z,117.55
2018-02-08T16:45:36.886Z,128.10
2018-02-08T16:48:04.300Z,129.10
2018-02-08T16:50:31.743Z,131.48
2018-02-08T16:52:59.952Z,134.80
2018-02-08T16:55:28.130Z,126.43
2018-02-08T16:57:55.567Z,125.93
2018-02-08T17:00:23.093Z,150.57
2018-02-08T17:02:50.565Z,138.90
2018-02-08T17:05:17.983Z,141.50
2018-02-08T17:07:46.169Z,163.32
2018-02-08T17:10:13.609Z,154.95
2018-02-08T17:15:14.947Z,150.30
2018-02-08T17:17:42.421Z,129.63
2018-02-08T17:20:09.874Z,144.07
2018-02-08T17:22:38.061Z,129.77
2018-02-08T17:25:06.266Z,137.85
2018-02-08T17:27:33.735Z,126.15
2018-02-08T17:30:01.207Z,139.25
2018-02-08T17:32:28.646Z,135.75
2018-02-08T17:34:56.830Z,129.05
2018-02-08T17:37:25.049Z,141.10
2018-02-08T17:39:52.595Z,123.47
2018-02-08T17:42:20.105Z,132.52
2018-02-08T17:44:47.528Z,127.55
2018-02-08T17:47:15.715Z,127.45
2018-02-08T17:49:43.901Z,132.63
2018-02-08T17:52:12.103Z,133.37
2018-02-08T17:54:39.593Z,126.78
2018-02-08T17:57:07.145Z,126.30
2018-02-08T17:59:34.666Z,126.62
2018-02-08T18:02:02.087Z,133.23
2018-02-08T18:04:30.353Z,137.75
2018-02-08T18:06:57.790Z,127.03
2018-02-08T18:09:25.245Z,125.65
2018-02-08T18:11:53.457Z,131.77
2018-02-08T18:14:20.919Z,141.73
2018-02-08T18:16:49.119Z,126.40
2018-02-08T18:19:16.694Z,134.75
2018-02-08T18:21:44.859Z,136.70
2018-02-08T18:24:13.058Z,136.02
2018-02-08T18:26:40.569Z,129.85
2018-02-08T18:29:08.000Z,135.75
2018-02-08T18:31:36.181Z,132.12
2018-02-08T18:34:04.389Z,135.15
2018-02-08T18:36:31.819Z,129.25
2018-02-08T18:38:59.239Z,132.32
2018-02-08T18:41:26.713Z,136.02
2018-02-08T18:43:54.149Z,133.35
2018-02-08T18:46:22.380Z,145.70
2018-02-08T18:48:49.795Z,141.30
2018-02-08T18:51:17.998Z,146.73
2018-02-08T18:53:45.422Z,149.25
2018-02-08T18:56:12.901Z,136.20
2018-02-08T18:58:40.327Z,151.30
2018-02-08T19:01:08.509Z,138.37
2018-02-08T19:03:35.923Z,131.55
2018-02-08T19:06:03.370Z,142.52
2018-02-08T19:08:30.799Z,142.30
2018-02-08T19:10:58.270Z,138.48
2018-02-08T19:13:25.717Z,140.73
2018-02-08T19:15:53.959Z,138.40
2018-02-08T19:18:21.506Z,135.07
2018-02-08T19:20:49.709Z,131.37
2018-02-08T19:23:17.156Z,144.13
2018-02-08T19:25:45.513Z,142.13
2018-02-08T19:28:13.751Z,146.32
2018-02-08T19:30:41.178Z,147.75
2018-02-08T19:33:09.371Z,149.55
2018-02-08T19:35:36.817Z,146.45
2018-02-08T19:38:04.329Z,144.35
2018-02-08T19:40:31.819Z,146.43
2018-02-08T19:42:59.272Z,149.30
2018-02-08T19:45:26.727Z,163.60
2018-02-08T19:47:54.184Z,142.50
2018-02-08T19:50:22.419Z,155.20
2018-02-08T19:52:50.137Z,142.45
2018-02-08T19:55:18.362Z,136.15
2018-02-08T19:57:45.859Z,141.98
2018-02-08T20:00:13.322Z,155.77
2018-02-08T20:02:40.826Z,130.05
2018-02-08T20:05:09.075Z,137.65
2018-02-08T20:07:36.507Z,141.02
2018-02-08T20:10:04.090Z,138.23
2018-02-08T20:12:31.569Z,155.43
2018-02-08T20:14:59.055Z,146.07
2018-02-08T20:17:26.484Z,143.70
2018-02-08T20:19:53.993Z,148.50
2018-02-08T20:22:21.605Z,150.25
2018-02-08T20:24:49.846Z,141.48
2018-02-08T20:27:17.266Z,146.82
2018-02-08T20:29:45.492Z,150.27
2018-02-08T20:32:12.942Z,144.93
2018-02-08T20:34:40.399Z,147.82
2018-02-08T20:37:09.350Z,141.23
2018-02-08T20:39:36.814Z,140.75
2018-02-08T20:42:04.316Z,146.82
2018-02-08T20:44:31.794Z,146.57
2018-02-08T20:46:59.285Z,144.65
2018-02-08T20:49:27.472Z,144.95
2018-02-08T20:51:54.970Z,147.02
2018-02-08T20:54:22.420Z,148.30
2018-02-08T20:56:49.907Z,138.85
2018-02-08T20:59:17.448Z,158.87
2018-02-08T21:01:44.911Z,145.60
2018-02-08T21:04:12.381Z,141.68
2018-02-08T21:06:39.805Z,152.20
2018-02-08T21:09:07.277Z,143.35
2018-02-08T21:11:34.832Z,153.50
2018-02-08T21:14:02.308Z,155.10
2018-02-08T21:16:29.757Z,159.15
2018-02-08T21:18:58.193Z,155.27
2018-02-08T21:21:25.653Z,157.98
2018-02-08T21:23:53.076Z,168.82
2018-02-08T21:26:21.312Z,148.55
2018-02-08T21:28:49.107Z,172.18
2018-02-08T21:31:16.557Z,165.50
2018-02-08T21:33:44.013Z,159.02
2018-02-08T21:36:11.453Z,157.37
2018-02-08T21:38:38.931Z,151.27
2018-02-08T21:41:06.376Z,157.48
2018-02-08T21:43:33.820Z,162.60
2018-02-08T21:46:02.037Z,173.75
2018-02-08T21:48:29.497Z,164.05
2018-02-08T21:50:57.016Z,161.05
2018-02-08T21:53:24.508Z,161.88
2018-02-08T21:55:52.002Z,155.00
2018-02-08T21:58:20.258Z,161.43
2018-02-08T22:00:47.766Z,176.23
2018-02-08T22:03:15.238Z,195.70
2018-02-08T22:05:43.489Z,176.98
2018-02-08T22:08:10.907Z,176.43
2018-02-08T22:10:38.358Z,172.87
2018-02-08T22:13:05.893Z,176.27
2018-02-08T22:15:33.311Z,156.60
2018-02-08T22:18:00.777Z,172.45
2018-02-08T22:20:28.327Z,170.48
2018-02-08T22:22:55.722Z,179.95
2018-02-08T22:25:23.154Z,160.77
2018-02-08T22:27:51.379Z,165.02
2018-02-08T22:30:18.785Z,166.07
2018-02-08T22:32:46.962Z,177.80
2018-02-08T22:35:14.462Z,177.48
2018-02-08T22:37:42.640Z,180.68
2018-02-08T22:40:10.839Z,180.70
2018-02-08T22:42:39.027Z,175.10
2018-02-08T22:45:07.305Z,169.05
2018-02-08T22:47:35.489Z,163.27
2018-02-08T22:50:03.681Z,171.37
2018-02-08T22:52:31.869Z,154.82
2018-02-08T22:55:00.088Z,173.90
2018-02-08T22:57:27.532Z,164.45
2018-02-08T22:59:55.705Z,172.90
2018-02-08T23:02:23.902Z,161.95
2018-02-08T23:04:52.102Z,165.95
2018-02-08T23:07:19.568Z,170.98
2018-02-08T23:09:47.006Z,169.93
2018-02-08T23:12:15.193Z,158.55
2018-02-08T23:14:43.381Z,167.57
2018-02-08T23:17:11.567Z,166.43
2018-02-08T23:19:39.791Z,173.02
2018-02-08T23:22:07.207Z,175.52
2018-02-08T23:24:34.644Z,162.05
2018-02-08T23:27:02.055Z,171.15
2018-02-08T23:29:29.555Z,174.55
2018-02-08T23:31:57.020Z,158.52
2018-02-08T23:34:24.496Z,153.93
2018-02-08T23:36:52.653Z,158.80
2018-02-08T23:39:20.846Z,167.77
2018-02-08T23:41:49.136Z,147.02
2018-02-08T23:44:16.572Z,168.55
2018-02-08T23:46:44.010Z,178.05
2018-02-08T23:49:11.472Z,150.73
2018-02-08T23:51:38.932Z,167.50
2018-02-08T23:54:06.383Z,163.50
2018-02-08T23:56:34.581Z,167.27
2018-02-08T23:59:02.002Z,160.45
